Latest Coastal Weather Observations for Cape Borda

IDS60701

Issued at 6:21 pm CST Saturday 24 June 2017 (issued every 10 minutes, with the page automatically refreshed every 10 minutes)

About coastal observations | Map of coastal stations | Coastal observations for SA | Marine services | Other Formats
Station Details ID: 022823 Name: CAPE BORDA Lat: -35.75 Lon: 136.60 Height: 158.0 m
Data from the previous 72 hours. | See also: Recent months at Cape Borda
Date/Time
CST
Temp
°C
Wind Pressure Rain since
9am
mm
Weather Cloud Vis
km
Sea
Height
m
Swell
Dir  Spd
kts
Gust
kts
hPa Trend Height
m
Period
s
Dir
24/06:00pm 11.0 SE 8 10 1018.3 - 0.0 - - - - - - -
24/05:30pm 11.4 SE 7 8 1018.2 - 0.0 - - - - - - -
24/05:00pm 12.8 S 5 7 1018.2 - 0.0 - - - - - - -
24/04:30pm 13.7 SW 6 8 1018.3 - 0.0 - - - - - - -
24/04:00pm 14.6 SSW 7 10 1018.2 - 0.0 - - - - - - -
24/03:30pm 14.5 SSW 7 9 1018.1 - 0.0 - - - - - - -
24/03:00pm 14.4 S 5 9 1018.1 F 0.0 Fine Partly cloudy 10 <0.1 8.5 11 SW
24/02:30pm 13.7 SW 5 7 1018.2 - 0.0 - - - - - - -
24/02:00pm 13.8 SSW 6 7 1018.4 - 0.0 - - - - - - -
24/01:30pm 13.9 S 5 7 1018.6 - 0.0 - - - - - - -
24/01:00pm 13.8 SSE 5 7 1018.8 - 0.0 - - - - - - -
24/12:30pm 13.2 SSE 6 8 1019.2 - 0.0 - - - - - - -
24/12:00pm 13.6 WSW 5 8 1019.8 - 0.0 - - - - - - -
24/11:30am 13.6 S 4 6 1019.8 - 0.0 - - - - - - -
24/11:00am 14.0 SE 5 8 1020.1 - 0.0 - - - - - - -
24/10:30am 14.0 SE 8 11 1020.2 - 0.0 - - - - - - -
24/10:00am 13.5 SSE 7 9 1020.2 - 0.0 - - - - - - -
24/09:30am 13.1 ESE 5 6 1020.0 - 0.0 - - - - - - -
24/09:00am 11.5 E 6 7 1019.9 S 0.0 Fine Partly cloudy 15 <0.1 8.5 12 SW
24/08:30am 10.6 ESE 7 8 1019.7 - 0.0 - - - - - - -
24/08:00am 9.9 ESE 7 8 1019.6 - 0.0 - - - - - - -
24/07:30am 9.7 SE 7 9 1019.4 - 0.0 - - - - - - -
24/07:00am 9.4 SSE 8 9 1019.1 - 0.0 - - - - - - -
24/06:30am 10.0 SE 8 8 1018.7 - 0.0 - - - - - - -
24/06:00am 10.7 SSE 8 9 1018.8 - 0.0 - - - - - - -
24/05:30am 10.5 SSE 8 9 1018.7 - 0.0 - - - - - - -
24/05:00am 10.4 SSE 8 9 1018.6 - 0.0 - - - - - - -
24/04:30am 10.0 SSE 9 9 1018.6 - 0.0 - - - - - - -
24/04:00am 9.8 SSE 8 9 1018.6 - 0.0 - - - - - - -
24/03:30am 10.1 SSE 9 10 1018.7 - 0.0 - - - - - - -
24/03:00am 10.0 SSE 9 9 1018.9 - 0.0 - - - - - - -
24/02:30am 9.4 SSE 8 9 1018.7 - 0.0 - - - - - - -
24/02:00am 9.3 SSE 9 10 1018.4 - 0.0 - - - - - - -
24/01:30am 9.4 SSE 10 11 1018.4 - 0.0 - - - - - - -
24/01:00am 9.4 SSE 9 10 1018.6 - 0.0 - - - - - - -
24/12:30am 9.4 SSE 9 10 1018.6 - 0.0 - - - - - - -
24/12:00am 9.5 SSE 9 10 1018.9 - 0.0 - - - - - - -
 
Date/Time
CST
Temp
°C
Wind Pressure Rain since
9am
mm
Weather Cloud Vis
km
Sea
Height
m
Swell
Dir  Spd
kts
Gust
kts
hPa Trend Height
m
Period
s
Dir
23/11:30pm 9.3 SSE 9 9 1018.8 - 0.0 - - - - - - -
23/11:00pm 9.6 SSE 9 10 1018.8 - 0.0 - - - - - - -
23/10:30pm 9.6 SSE 9 11 1018.8 - 0.0 - - - - - - -
23/10:00pm 9.9 SSE 10 11 1018.8 - 0.0 - - - - - - -
23/09:30pm 10.0 SSE 9 10 1018.9 - 0.0 - - - - - - -
23/09:00pm 10.4 SSE 10 11 1018.7 - 0.0 - - - - - - -
23/08:30pm 10.9 SSE 10 11 1018.4 - 0.0 - - - - - - -
23/08:00pm 11.4 SSE 9 11 1018.2 - 0.0 - - - - - - -
23/07:30pm 11.7 SSE 9 10 1018.1 - 0.0 - - - - - - -
23/07:00pm 12.1 SSE 8 9 1017.9 - 0.0 - - - - - - -
23/06:30pm 12.9 S 6 7 1017.6 - 0.0 - - - - - - -
23/06:00pm 13.1 S 7 8 1017.4 - 0.0 - - - - - - -
23/05:30pm 14.1 S 6 8 1017.0 - 0.0 - - - - - - -
23/05:00pm 15.1 SSW 7 9 1016.7 - 0.0 - - - - - - -
23/04:30pm 16.3 WSW 7 9 1016.4 - 0.0 - - - - - - -
23/04:00pm 16.7 WSW 8 11 1016.4 - 0.0 - - - - - - -
23/03:30pm 17.1 WSW 7 10 1016.5 - 0.0 - - - - - - -
23/03:00pm 17.1 W 8 11 1016.7 R 0.0 Fine Mostly clear 15 <0.1 4.2 9 SW
23/02:30pm 18.0 W 8 11 1016.5 - 0.0 - - - - - - -
23/02:00pm 17.5 W 8 11 1016.7 - 0.0 - - - - - - -
23/01:30pm 17.4 W 7 10 1017.2 - 0.0 - - - - - - -
23/01:00pm 17.4 WNW 7 9 1017.2 - 0.0 - - - - - - -
23/12:30pm 17.6 WNW 7 9 1017.5 - 0.0 - - - - - - -
23/12:00pm 17.6 W 6 8 1017.9 - 0.0 - - - - - - -
23/11:30am 17.3 W 6 8 1017.9 - 0.0 - - - - - - -
23/11:00am 17.0 W 6 8 1018.1 - 0.0 - - - - - - -
23/10:30am 16.9 WNW 6 7 1018.4 - 0.0 - - - - - - -
23/10:00am 16.6 W 6 7 1018.1 - 0.0 - - - - - - -
23/09:30am 16.1 WNW 5 7 1018.0 - 0.0 - - - - - - -
23/09:00am 15.2 WNW 5 7 1018.0 F 0.2 Fine Partly cloudy 18 <0.1 3.8 9 SW
23/08:30am 14.0 WNW 4 6 1017.8 - 0.2 - - - - - - -
23/08:00am 13.4 W 6 7 1017.5 - 0.2 - - - - - - -
23/07:30am 14.0 NW 5 7 1017.6 - 0.2 - - - - - - -
23/07:00am 14.3 NW 7 9 1017.4 - 0.2 - - - - - - -
23/06:30am 14.0 NW 6 9 1017.4 - 0.2 - - - - - - -
23/06:00am 13.8 NW 6 8 1017.2 - 0.2 - - - - - - -
23/05:30am 13.5 NW 7 9 1017.1 - 0.2 - - - - - - -
23/05:00am 13.5 NW 6 9 1017.1 - 0.2 - - - - - - -
23/04:30am 13.6 NW 7 9 1017.1 - 0.2 - - - - - - -
23/04:00am 13.8 NW 8 11 1017.5 - 0.2 - - - - - - -
23/03:30am 14.1 NW 10 15 1017.9 - 0.2 - - - - - - -
23/03:00am 13.9 NNW 9 12 1017.9 - 0.2 - - - - - - -
23/02:30am 13.6 NNW 9 13 1017.9 - 0.2 - - - - - - -
23/02:00am 13.7 N 7 11 1018.2 - 0.2 - - - - - - -
23/01:30am 13.6 N 8 11 1018.4 - 0.2 - - - - - - -
23/01:00am 13.0 N 8 11 1018.6 - 0.2 - - - - - - -
23/12:30am 12.5 NNE 8 11 1018.8 - 0.2 - - - - - - -
23/12:00am 11.9 NNE 7 9 1019.2 - 0.2 - - - - - - -
 
Date/Time
CST
Temp
°C
Wind Pressure Rain since
9am
mm
Weather Cloud Vis
km
Sea
Height
m
Swell
Dir  Spd
kts
Gust
kts
hPa Trend Height
m
Period
s
Dir
22/11:30pm 11.4 NNE 7 8 1019.5 - 0.2 - - - - - - -
22/11:00pm 11.0 NNE 8 8 1019.7 - 0.2 - - - - - - -
22/10:30pm 10.9 NE 7 8 1020.0 - 0.2 - - - - - - -
22/10:00pm 10.8 NE 8 8 1020.0 - 0.2 - - - - - - -
22/09:30pm 10.9 NNE 6 7 1020.3 - 0.2 - - - - - - -
22/09:00pm 11.1 N 6 7 1020.5 - 0.2 - - - - - - -
22/08:30pm 11.4 N 6 7 1020.6 - 0.2 - - - - - - -
22/08:00pm 11.3 NNE 6 7 1020.9 - 0.2 - - - - - - -
22/07:30pm 11.9 NE 6 7 1020.6 - 0.2 - - - - - - -
22/07:00pm 12.4 NNE 6 7 1020.5 - 0.2 - - - - - - -
22/06:30pm 12.3 NNE 7 8 1020.4 - 0.2 - - - - - - -
22/06:00pm 12.4 NE 7 8 1020.5 - 0.2 - - - - - - -
22/05:30pm 13.4 NNE 6 7 1020.5 - 0.2 - - - - - - -
22/05:00pm 14.6 N 7 9 1020.5 - 0.2 - - - - - - -
22/04:30pm 14.4 NNE 7 9 1020.8 - 0.2 - - - - - - -
22/04:00pm 15.2 N 9 11 1020.9 - 0.2 - - - - - - -
22/03:30pm 15.9 N 8 12 1021.0 - 0.2 - - - - - - -
22/03:00pm 16.5 NNE 9 12 1020.9 - 0.0 - - - - - - -
22/02:30pm 16.3 NNE 9 13 1020.9 - 0.0 - - - - - - -
22/02:00pm 16.3 NNE 10 13 1021.3 - 0.0 - - - - - - -
22/01:30pm 15.7 NNE 9 13 1021.6 - 0.0 - - - - - - -
22/01:00pm 15.5 NNE 9 13 1022.1 - 0.0 - - - - - - -
22/12:30pm 15.6 NE 11 15 1022.7 - 0.0 - - - - - - -
22/12:00pm 15.6 NE 11 15 1023.4 - 0.0 - - - - - - -
22/11:30am 15.4 NNE 10 15 1023.8 - 0.0 - - - - - - -
22/11:00am 15.1 NNE 10 14 1024.4 - 0.0 - - - - - - -
22/10:30am 14.6 NE 10 14 1024.8 - 0.0 - - - - - - -
22/10:00am 14.3 NNE 10 13 1025.0 - 0.0 - - - - - - -
22/09:30am 13.9 NNE 9 13 1025.0 - 0.0 - - - - - - -
22/09:00am 13.1 NE 9 12 1025.0 - 0.2 - - - - - - -
22/08:30am 12.1 NE 9 12 1024.7 - 0.2 - - - - - - -
22/08:00am 11.5 NE 9 11 1024.8 - 0.2 - - - - - - -
22/07:30am 11.3 NE 8 11 1024.8 - 0.2 - - - - - - -
22/07:00am 11.6 NE 9 12 1024.5 - 0.2 - - - - - - -
22/06:30am 11.5 ENE 9 12 1024.2 - 0.2 - - - - - - -
22/06:00am 11.4 ENE 9 11 1024.1 - 0.2 - - - - - - -
22/05:30am 10.5 ENE 9 11 1023.9 - 0.2 - - - - - - -
22/05:00am 9.2 E 8 9 1024.2 - 0.2 - - - - - - -
22/04:30am 10.1 E 9 11 1024.2 - 0.2 - - - - - - -
22/04:00am 10.0 E 8 9 1024.2 - 0.2 - - - - - - -
22/03:30am 10.8 ENE 8 9 1024.4 - 0.2 - - - - - - -
22/03:00am 11.2 ENE 9 11 1024.8 - 0.0 - - - - - - -
22/02:30am 10.9 ENE 9 11 1024.6 - 0.0 - - - - - - -
22/02:00am 10.0 ENE 8 9 1024.9 - 0.0 - - - - - - -
22/01:30am 9.2 E 7 8 1025.0 - 0.0 - - - - - - -
22/01:00am 9.7 E 7 7 1025.3 - 0.0 - - - - - - -
22/12:30am 11.2 ENE 8 8 1025.5 - 0.0 - - - - - - -
22/12:00am 11.5 ENE 7 7 1026.0 - 0.0 - - - - - - -
 
Date/Time
CST
Temp
°C
Wind Pressure Rain since
9am
mm
Weather Cloud Vis
km
Sea
Height
m
Swell
Dir  Spd
kts
Gust
kts
hPa Trend Height
m
Period
s
Dir
21/11:30pm 11.9 ENE 8 9 1025.9 - 0.0 - - - - - - -
21/11:00pm 12.0 ENE 8 9 1026.1 - 0.0 - - - - - - -
21/10:30pm 11.5 ENE 8 9 1026.2 - 0.0 - - - - - - -
21/10:00pm 11.7 ENE 7 8 1026.5 - 0.0 - - - - - - -
21/09:30pm 11.6 NE 5 8 1026.7 - 0.0 - - - - - - -
21/09:00pm 11.3 ENE 7 7 1026.9 - 0.0 - - - - - - -
21/08:30pm 10.5 E 6 6 1026.9 - 0.0 - - - - - - -
21/08:00pm 11.3 E 5 6 1026.8 - 0.0 - - - - - - -
21/07:30pm 11.7 E 5 5 1026.7 - 0.0 - - - - - - -
21/07:00pm 11.8 ESE 5 6 1026.6 - 0.0 - - - - - - -
21/06:30pm 12.6 N 3 4 1026.3 - 0.0 - - - - - - -

Other Formats:

Comma delimited format used in spreadsheet applications
http://www.bom.gov.au/fwo/IDS60701/IDS60701.95805.axf

JavaScript Object Notation format (JSON) in row-major order
http://www.bom.gov.au/fwo/IDS60701/IDS60701.95805.json